createdAt,value
2023-02-12T00:02:20.346Z,46.80
2023-02-12T00:08:22.295Z,60.77
2023-02-12T00:14:24.194Z,60.17
2023-02-12T00:20:26.073Z,56.20
2023-02-12T00:26:28.603Z,57.37
2023-02-12T00:32:30.504Z,56.40
2023-02-12T00:38:32.508Z,46.20
2023-02-12T00:44:34.965Z,48.70
2023-02-12T00:50:37.013Z,44.07
2023-02-12T00:56:38.899Z,43.30
2023-02-12T01:02:40.822Z,53.33
2023-02-12T01:08:42.712Z,50.23
2023-02-12T01:14:44.638Z,78.80
2023-02-12T01:20:46.506Z,53.90
2023-02-12T01:26:48.412Z,69.13
2023-02-12T01:32:50.503Z,89.63
2023-02-12T01:38:52.437Z,48.63
2023-02-12T01:45:12.819Z,30.73
2023-02-12T01:51:20.145Z,44.10
2023-02-12T01:57:22.770Z,79.50
2023-02-12T02:03:24.737Z,54.03
2023-02-12T02:09:28.505Z,56.40
2023-02-12T02:15:31.904Z,100.73
2023-02-12T02:22:08.147Z,307.30
2023-02-12T02:28:21.810Z,236.00
2023-02-12T02:34:40.484Z,77.97
2023-02-12T02:41:11.923Z,65.33
2023-02-12T02:47:17.158Z,35.23
2023-02-12T02:53:29.942Z,46.97
2023-02-12T02:59:40.546Z,40.20
2023-02-12T03:05:50.792Z,43.50
2023-02-12T03:12:00.222Z,46.97
2023-02-12T03:18:08.326Z,84.33
2023-02-12T03:24:36.727Z,89.40
2023-02-12T03:31:08.677Z,214.07
2023-02-12T03:37:19.350Z,122.70
2023-02-12T03:43:51.014Z,136.37
2023-02-12T03:50:27.243Z,51.93
2023-02-12T03:57:04.304Z,48.90
2023-02-12T04:03:07.112Z,58.73
2023-02-12T04:09:12.133Z,48.67
2023-02-12T04:15:16.710Z,56.33
2023-02-12T04:21:43.356Z,48.87
2023-02-12T04:28:08.355Z,46.80
2023-02-12T04:34:20.402Z,59.90
2023-02-12T04:40:23.078Z,61.77
2023-02-12T04:46:25.019Z,60.70
2023-02-12T04:52:26.934Z,87.40
2023-02-12T04:58:28.822Z,86.87
2023-02-12T05:04:30.705Z,64.63
2023-02-12T05:10:32.636Z,306.93
2023-02-12T05:16:34.563Z,209.93
2023-02-12T05:22:36.446Z,187.13
2023-02-12T05:28:38.743Z,157.83
2023-02-12T05:34:40.697Z,440.80
2023-02-12T05:40:43.161Z,383.30
2023-02-12T05:46:45.146Z,88.57
2023-02-12T05:52:47.586Z,484.60
2023-02-12T05:59:20.521Z,125.60
2023-02-12T06:05:22.405Z,703.00
2023-02-12T06:11:24.961Z,425.37
2023-02-12T06:17:26.947Z,513.77
2023-02-12T06:23:28.845Z,505.47
2023-02-12T06:29:30.788Z,483.37
2023-02-12T06:35:35.994Z,564.77
2023-02-12T06:41:38.033Z,359.83
2023-02-12T06:47:39.918Z,590.00
2023-02-12T06:53:42.877Z,597.30
2023-02-12T06:59:44.826Z,280.90
2023-02-12T07:05:48.206Z,414.93
2023-02-12T07:11:50.352Z,189.80
2023-02-12T07:17:52.232Z,94.07
2023-02-12T07:23:54.471Z,279.77
2023-02-12T07:29:56.412Z,570.57
2023-02-12T07:36:01.348Z,294.90
2023-02-12T07:42:03.299Z,90.30
2023-02-12T07:48:05.259Z,428.87
2023-02-12T07:54:07.621Z,106.97
2023-02-12T08:00:10.954Z,79.67
2023-02-12T08:06:17.016Z,64.27
2023-02-12T08:12:19.863Z,53.80
2023-02-12T08:18:21.746Z,42.37
2023-02-12T08:24:24.793Z,41.43
2023-02-12T08:30:26.685Z,45.60
2023-02-12T08:36:40.172Z,127.80
2023-02-12T08:42:42.047Z,46.53
2023-02-12T08:48:44.835Z,56.10
2023-02-12T08:54:46.725Z,47.87
2023-02-12T09:00:48.625Z,44.40
2023-02-12T09:06:50.995Z,49.13
2023-02-12T09:12:52.922Z,48.43
2023-02-12T09:18:55.086Z,43.37
2023-02-12T09:24:56.986Z,46.33
2023-02-12T09:30:59.000Z,42.90
2023-02-12T09:37:00.969Z,44.50
2023-02-12T09:43:39.944Z,40.50
2023-02-12T09:50:29.873Z,40.87
2023-02-12T09:56:35.439Z,35.27
2023-02-12T10:02:40.130Z,34.17
2023-02-12T10:08:57.506Z,29.20
2023-02-12T10:15:26.721Z,33.00
2023-02-12T10:21:34.333Z,28.27
2023-02-12T10:28:11.155Z,28.57
2023-02-12T10:34:23.821Z,25.83
2023-02-12T10:40:32.833Z,25.93
2023-02-12T10:46:34.805Z,25.70
2023-02-12T10:52:56.293Z,21.87
2023-02-12T10:59:00.446Z,26.13
2023-02-12T11:05:24.818Z,23.17
2023-02-12T11:11:37.004Z,21.87
2023-02-12T11:17:42.821Z,21.50
2023-02-12T11:23:46.099Z,24.20
2023-02-12T11:30:04.025Z,24.20
2023-02-12T11:36:25.044Z,23.60
2023-02-12T11:42:29.574Z,23.50
2023-02-12T11:48:40.138Z,19.10
2023-02-12T11:54:46.257Z,34.07
2023-02-12T12:01:00.683Z,23.40
2023-02-12T12:07:23.959Z,14.40
2023-02-12T12:13:35.228Z,14.60
2023-02-12T12:20:06.776Z,16.30
2023-02-12T12:26:29.356Z,16.57
2023-02-12T12:32:34.522Z,13.30
2023-02-12T12:39:10.136Z,13.83
2023-02-12T12:45:34.087Z,19.43
2023-02-12T12:52:03.453Z,21.70
2023-02-12T12:58:25.548Z,24.23
2023-02-12T13:04:52.030Z,25.00
2023-02-12T13:11:00.693Z,20.90
2023-02-12T13:17:23.636Z,21.03
2023-02-12T13:24:04.728Z,24.23
2023-02-12T13:30:20.490Z,21.80
2023-02-12T13:36:23.223Z,23.47
2023-02-12T13:43:01.510Z,24.03
2023-02-12T13:49:15.450Z,17.90
2023-02-12T13:56:04.763Z,20.53
2023-02-12T14:02:12.688Z,18.60
2023-02-12T14:08:38.621Z,24.60
2023-02-12T14:14:46.350Z,24.20
2023-02-12T14:20:48.626Z,21.03
2023-02-12T14:26:51.058Z,20.30
2023-02-12T14:32:53.752Z,17.97
2023-02-12T14:39:00.764Z,15.23
2023-02-12T14:45:02.704Z,17.57
2023-02-12T14:51:05.826Z,16.00
2023-02-12T14:57:19.195Z,15.07
2023-02-12T15:03:55.143Z,18.60
2023-02-12T15:10:25.489Z,15.70
2023-02-12T15:17:03.940Z,14.03
2023-02-12T15:23:43.264Z,16.23
2023-02-12T15:29:52.774Z,18.13
2023-02-12T15:35:56.200Z,17.43
2023-02-12T15:41:58.324Z,16.43
2023-02-12T15:48:21.703Z,14.47
2023-02-12T15:54:24.260Z,14.60
2023-02-12T16:00:49.454Z,13.13
2023-02-12T16:06:52.573Z,11.90
2023-02-12T16:12:54.957Z,14.20
2023-02-12T16:19:19.906Z,10.67
2023-02-12T16:25:33.678Z,13.20
2023-02-12T16:31:35.703Z,11.93
2023-02-12T16:37:37.539Z,10.67
2023-02-12T16:43:39.469Z,12.17
2023-02-12T16:49:59.276Z,12.03
2023-02-12T16:56:04.732Z,15.97
2023-02-12T17:02:16.323Z,12.40
2023-02-12T17:08:22.803Z,15.00
2023-02-12T17:14:24.753Z,17.57
2023-02-12T17:20:26.637Z,17.37
2023-02-12T17:26:28.558Z,13.37
2023-02-12T17:32:30.466Z,16.90
2023-02-12T17:38:32.625Z,13.30
2023-02-12T17:44:34.570Z,13.10
2023-02-12T17:50:36.480Z,15.57
2023-02-12T17:56:38.368Z,17.30
2023-02-12T18:02:40.291Z,13.17
2023-02-12T18:08:43.304Z,16.60
2023-02-12T18:14:45.285Z,17.30
2023-02-12T18:20:47.227Z,16.40
2023-02-12T18:26:49.945Z,15.30
2023-02-12T18:32:51.898Z,14.97
2023-02-12T18:38:53.851Z,21.87
2023-02-12T18:44:55.743Z,19.90
2023-02-12T18:51:01.844Z,18.77
2023-02-12T18:57:03.826Z,21.83
2023-02-12T19:03:05.760Z,17.57
2023-02-12T19:09:07.839Z,21.33
2023-02-12T19:15:10.125Z,18.60
2023-02-12T19:21:14.374Z,17.40
2023-02-12T19:27:16.269Z,15.10
2023-02-12T19:33:18.167Z,17.83
2023-02-12T19:39:23.846Z,16.17
2023-02-12T19:45:25.722Z,16.93
2023-02-12T19:51:29.886Z,13.90
2023-02-12T19:57:31.871Z,22.50
2023-02-12T20:03:34.977Z,19.30
2023-02-12T20:09:37.000Z,24.73
2023-02-12T20:15:39.832Z,21.07
2023-02-12T20:21:42.887Z,22.50
2023-02-12T20:27:44.794Z,19.60
2023-02-12T20:33:47.671Z,24.00
2023-02-12T20:39:49.558Z,19.27
2023-02-12T20:45:51.437Z,19.30
2023-02-12T20:51:53.616Z,18.20
2023-02-12T20:57:55.535Z,15.90
2023-02-12T21:03:57.746Z,16.33
2023-02-12T21:09:59.647Z,13.60
2023-02-12T21:16:12.758Z,15.47
2023-02-12T21:22:14.686Z,17.17
2023-02-12T21:28:16.597Z,13.57
2023-02-12T21:34:22.245Z,18.00
2023-02-12T21:40:24.268Z,12.07
2023-02-12T21:46:27.916Z,18.40
2023-02-12T21:52:29.827Z,17.43
2023-02-12T21:58:33.039Z,9.27
2023-02-12T22:04:34.967Z,15.50
2023-02-12T22:10:37.730Z,13.73
2023-02-12T22:16:40.233Z,6.90
2023-02-12T22:22:42.360Z,16.33
2023-02-12T22:28:47.530Z,8.40
2023-02-12T22:34:49.438Z,9.27
2023-02-12T22:40:53.247Z,9.60
2023-02-12T22:46:55.172Z,9.10
2023-02-12T22:52:57.059Z,11.23
2023-02-12T22:59:01.634Z,7.40
2023-02-12T23:05:03.565Z,11.10
2023-02-12T23:11:07.110Z,13.40
2023-02-12T23:17:10.171Z,8.47
2023-02-12T23:23:12.055Z,12.73
2023-02-12T23:29:14.092Z,15.73
2023-02-12T23:35:16.158Z,10.53
2023-02-12T23:41:18.044Z,16.00
2023-02-12T23:47:19.957Z,10.23
2023-02-12T23:53:22.418Z,9.63
2023-02-12T23:59:27.483Z,10.33
